sensor_id;sensor_type;location;lat;lon;timestamp;P1;durP1;ratioP1;P2;durP2;ratioP2
12660;SDS011;39039;51.802;5.710;2023-04-29T00:02:10;78.33;;;66.67;;
12660;SDS011;39039;51.802;5.710;2023-04-29T00:04:37;70.77;;;53.17;;
12660;SDS011;39039;51.802;5.710;2023-04-29T00:07:04;69.77;;;53.77;;
12660;SDS011;39039;51.802;5.710;2023-04-29T00:09:32;74.70;;;58.30;;
12660;SDS011;39039;51.802;5.710;2023-04-29T00:11:59;72.93;;;52.27;;
12660;SDS011;39039;51.802;5.710;2023-04-29T00:14:26;66.87;;;50.10;;
12660;SDS011;39039;51.802;5.710;2023-04-29T00:16:55;67.53;;;52.20;;
12660;SDS011;39039;51.802;5.710;2023-04-29T00:19:22;62.70;;;50.50;;
12660;SDS011;39039;51.802;5.710;2023-04-29T00:21:49;65.73;;;50.80;;
12660;SDS011;39039;51.802;5.710;2023-04-29T00:24:18;58.53;;;51.20;;
12660;SDS011;39039;51.802;5.710;2023-04-29T00:26:45;57.30;;;47.83;;
12660;SDS011;39039;51.802;5.710;2023-04-29T00:29:12;57.43;;;47.80;;
12660;SDS011;39039;51.802;5.710;2023-04-29T00:31:39;53.07;;;45.10;;
12660;SDS011;39039;51.802;5.710;2023-04-29T00:34:08;54.47;;;45.93;;
12660;SDS011;39039;51.802;5.710;2023-04-29T00:36:35;54.43;;;45.07;;
12660;SDS011;39039;51.802;5.710;2023-04-29T00:39:02;53.47;;;43.23;;
12660;SDS011;39039;51.802;5.710;2023-04-29T00:41:29;57.57;;;44.70;;
12660;SDS011;39039;51.802;5.710;2023-04-29T00:43:56;56.23;;;48.07;;
12660;SDS011;39039;51.802;5.710;2023-04-29T00:46:23;58.33;;;43.10;;
12660;SDS011;39039;51.802;5.710;2023-04-29T00:48:51;56.60;;;46.27;;
12660;SDS011;39039;51.802;5.710;2023-04-29T00:51:19;60.70;;;47.93;;
12660;SDS011;39039;51.802;5.710;2023-04-29T00:53:46;56.20;;;45.80;;
12660;SDS011;39039;51.802;5.710;2023-04-29T00:56:14;81.47;;;72.90;;
12660;SDS011;39039;51.802;5.710;2023-04-29T00:58:41;57.40;;;43.63;;
12660;SDS011;39039;51.802;5.710;2023-04-29T01:01:13;59.37;;;46.07;;
12660;SDS011;39039;51.802;5.710;2023-04-29T01:03:41;64.70;;;46.70;;
12660;SDS011;39039;51.802;5.710;2023-04-29T01:06:12;56.10;;;44.10;;
12660;SDS011;39039;51.802;5.710;2023-04-29T01:08:46;64.97;;;50.07;;
12660;SDS011;39039;51.802;5.710;2023-04-29T01:11:18;90.27;;;80.77;;
12660;SDS011;39039;51.802;5.710;2023-04-29T01:13:49;60.20;;;45.77;;
12660;SDS011;39039;51.802;5.710;2023-04-29T01:16:17;58.43;;;45.57;;
12660;SDS011;39039;51.802;5.710;2023-04-29T01:18:48;58.07;;;46.60;;
12660;SDS011;39039;51.802;5.710;2023-04-29T01:21:16;58.20;;;45.40;;
12660;SDS011;39039;51.802;5.710;2023-04-29T01:23:45;56.00;;;44.67;;
12660;SDS011;39039;51.802;5.710;2023-04-29T01:26:15;61.27;;;45.57;;
12660;SDS011;39039;51.802;5.710;2023-04-29T01:28:45;57.23;;;44.90;;
12660;SDS011;39039;51.802;5.710;2023-04-29T01:31:14;57.37;;;45.27;;
12660;SDS011;39039;51.802;5.710;2023-04-29T01:33:45;58.37;;;47.10;;
12660;SDS011;39039;51.802;5.710;2023-04-29T01:36:16;63.30;;;45.40;;
12660;SDS011;39039;51.802;5.710;2023-04-29T01:38:48;66.90;;;51.97;;
12660;SDS011;39039;51.802;5.710;2023-04-29T01:41:26;74.00;;;45.07;;
12660;SDS011;39039;51.802;5.710;2023-04-29T01:43:54;64.13;;;48.07;;
12660;SDS011;39039;51.802;5.710;2023-04-29T01:46:22;65.83;;;45.80;;
12660;SDS011;39039;51.802;5.710;2023-04-29T01:48:51;66.63;;;46.27;;
12660;SDS011;39039;51.802;5.710;2023-04-29T01:51:18;56.47;;;43.33;;
12660;SDS011;39039;51.802;5.710;2023-04-29T01:53:45;66.80;;;49.17;;
12660;SDS011;39039;51.802;5.710;2023-04-29T01:56:13;64.43;;;47.40;;
12660;SDS011;39039;51.802;5.710;2023-04-29T01:58:41;71.87;;;47.43;;
12660;SDS011;39039;51.802;5.710;2023-04-29T02:01:08;69.60;;;50.43;;
12660;SDS011;39039;51.802;5.710;2023-04-29T02:03:35;64.03;;;45.07;;
12660;SDS011;39039;51.802;5.710;2023-04-29T02:06:03;59.57;;;45.13;;
12660;SDS011;39039;51.802;5.710;2023-04-29T02:08:31;67.00;;;45.40;;
12660;SDS011;39039;51.802;5.710;2023-04-29T02:10:58;73.43;;;47.10;;
12660;SDS011;39039;51.802;5.710;2023-04-29T02:13:26;63.90;;;44.47;;
12660;SDS011;39039;51.802;5.710;2023-04-29T02:15:53;69.97;;;46.97;;
12660;SDS011;39039;51.802;5.710;2023-04-29T02:18:20;62.03;;;43.27;;
12660;SDS011;39039;51.802;5.710;2023-04-29T02:20:47;87.60;;;66.37;;
12660;SDS011;39039;51.802;5.710;2023-04-29T02:23:15;63.23;;;45.70;;
12660;SDS011;39039;51.802;5.710;2023-04-29T02:25:42;75.13;;;46.97;;
12660;SDS011;39039;51.802;5.710;2023-04-29T02:28:09;76.77;;;51.63;;
12660;SDS011;39039;51.802;5.710;2023-04-29T02:30:38;65.90;;;49.40;;
12660;SDS011;39039;51.802;5.710;2023-04-29T02:33:05;76.57;;;52.13;;
12660;SDS011;39039;51.802;5.710;2023-04-29T02:35:32;70.03;;;52.80;;
12660;SDS011;39039;51.802;5.710;2023-04-29T02:37:59;71.33;;;58.07;;
12660;SDS011;39039;51.802;5.710;2023-04-29T02:40:26;79.00;;;57.27;;
12660;SDS011;39039;51.802;5.710;2023-04-29T02:42:53;77.97;;;58.00;;
12660;SDS011;39039;51.802;5.710;2023-04-29T02:45:20;78.80;;;54.50;;
12660;SDS011;39039;51.802;5.710;2023-04-29T02:47:48;92.43;;;62.27;;
12660;SDS011;39039;51.802;5.710;2023-04-29T02:50:15;92.87;;;58.30;;
12660;SDS011;39039;51.802;5.710;2023-04-29T02:52:43;79.37;;;52.93;;
12660;SDS011;39039;51.802;5.710;2023-04-29T02:55:10;75.77;;;49.70;;
12660;SDS011;39039;51.802;5.710;2023-04-29T02:57:37;80.27;;;48.77;;
12660;SDS011;39039;51.802;5.710;2023-04-29T03:00:05;74.43;;;48.33;;
12660;SDS011;39039;51.802;5.710;2023-04-29T03:02:33;78.07;;;49.07;;
12660;SDS011;39039;51.802;5.710;2023-04-29T03:05:01;76.77;;;51.20;;
12660;SDS011;39039;51.802;5.710;2023-04-29T03:07:28;81.70;;;53.80;;
12660;SDS011;39039;51.802;5.710;2023-04-29T03:09:55;75.87;;;53.03;;
12660;SDS011;39039;51.802;5.710;2023-04-29T03:12:22;81.33;;;50.33;;
12660;SDS011;39039;51.802;5.710;2023-04-29T03:14:49;75.03;;;55.10;;
12660;SDS011;39039;51.802;5.710;2023-04-29T03:17:17;77.97;;;52.17;;
12660;SDS011;39039;51.802;5.710;2023-04-29T03:19:44;77.80;;;53.70;;
12660;SDS011;39039;51.802;5.710;2023-04-29T03:22:12;71.93;;;57.33;;
12660;SDS011;39039;51.802;5.710;2023-04-29T03:24:39;72.37;;;54.93;;
12660;SDS011;39039;51.802;5.710;2023-04-29T03:27:06;70.87;;;56.97;;
12660;SDS011;39039;51.802;5.710;2023-04-29T03:29:33;75.93;;;55.27;;
12660;SDS011;39039;51.802;5.710;2023-04-29T03:32:00;77.80;;;57.03;;
12660;SDS011;39039;51.802;5.710;2023-04-29T03:34:27;66.43;;;52.53;;
12660;SDS011;39039;51.802;5.710;2023-04-29T03:36:55;68.60;;;56.67;;
12660;SDS011;39039;51.802;5.710;2023-04-29T03:39:23;68.03;;;55.57;;
12660;SDS011;39039;51.802;5.710;2023-04-29T03:41:52;63.20;;;53.73;;
12660;SDS011;39039;51.802;5.710;2023-04-29T03:44:19;72.23;;;56.07;;
12660;SDS011;39039;51.802;5.710;2023-04-29T03:46:46;68.10;;;55.33;;
12660;SDS011;39039;51.802;5.710;2023-04-29T03:49:13;65.07;;;51.03;;
12660;SDS011;39039;51.802;5.710;2023-04-29T03:51:40;75.30;;;52.53;;
12660;SDS011;39039;51.802;5.710;2023-04-29T03:54:09;67.57;;;51.30;;
12660;SDS011;39039;51.802;5.710;2023-04-29T03:56:37;61.87;;;46.93;;
12660;SDS011;39039;51.802;5.710;2023-04-29T03:59:05;60.97;;;46.30;;
12660;SDS011;39039;51.802;5.710;2023-04-29T04:01:32;64.37;;;46.90;;
12660;SDS011;39039;51.802;5.710;2023-04-29T04:03:59;60.03;;;45.23;;
12660;SDS011;39039;51.802;5.710;2023-04-29T04:06:26;63.47;;;47.63;;
12660;SDS011;39039;51.802;5.710;2023-04-29T04:08:53;63.27;;;46.60;;
12660;SDS011;39039;51.802;5.710;2023-04-29T04:11:20;69.93;;;48.83;;
12660;SDS011;39039;51.802;5.710;2023-04-29T04:13:48;62.30;;;46.40;;
12660;SDS011;39039;51.802;5.710;2023-04-29T04:16:16;57.60;;;43.90;;
12660;SDS011;39039;51.802;5.710;2023-04-29T04:18:43;60.40;;;48.17;;
12660;SDS011;39039;51.802;5.710;2023-04-29T04:21:11;56.53;;;44.47;;
12660;SDS011;39039;51.802;5.710;2023-04-29T04:23:38;58.20;;;42.63;;
12660;SDS011;39039;51.802;5.710;2023-04-29T04:26:05;56.63;;;43.57;;
12660;SDS011;39039;51.802;5.710;2023-04-29T04:28:32;57.57;;;44.70;;
12660;SDS011;39039;51.802;5.710;2023-04-29T04:31:01;59.07;;;45.17;;
12660;SDS011;39039;51.802;5.710;2023-04-29T04:33:29;55.37;;;43.57;;
12660;SDS011;39039;51.802;5.710;2023-04-29T04:35:57;55.13;;;44.57;;
12660;SDS011;39039;51.802;5.710;2023-04-29T04:38:24;57.87;;;44.27;;
12660;SDS011;39039;51.802;5.710;2023-04-29T04:40:52;58.07;;;46.63;;
12660;SDS011;39039;51.802;5.710;2023-04-29T04:43:19;60.80;;;45.70;;
12660;SDS011;39039;51.802;5.710;2023-04-29T04:45:46;56.57;;;44.27;;
12660;SDS011;39039;51.802;5.710;2023-04-29T04:48:14;55.20;;;45.70;;
12660;SDS011;39039;51.802;5.710;2023-04-29T04:50:41;58.83;;;45.33;;
12660;SDS011;39039;51.802;5.710;2023-04-29T04:53:08;59.70;;;43.37;;
12660;SDS011;39039;51.802;5.710;2023-04-29T04:55:35;51.53;;;43.47;;
12660;SDS011;39039;51.802;5.710;2023-04-29T04:58:02;51.30;;;41.23;;
12660;SDS011;39039;51.802;5.710;2023-04-29T05:00:30;56.43;;;45.00;;
12660;SDS011;39039;51.802;5.710;2023-04-29T05:02:57;54.33;;;44.47;;
12660;SDS011;39039;51.802;5.710;2023-04-29T05:05:25;54.73;;;42.20;;
12660;SDS011;39039;51.802;5.710;2023-04-29T05:07:52;51.33;;;40.87;;
12660;SDS011;39039;51.802;5.710;2023-04-29T05:10:19;53.70;;;44.40;;
12660;SDS011;39039;51.802;5.710;2023-04-29T05:12:50;47.50;;;40.60;;
12660;SDS011;39039;51.802;5.710;2023-04-29T05:15:18;52.50;;;43.93;;
12660;SDS011;39039;51.802;5.710;2023-04-29T05:17:45;50.43;;;41.93;;
12660;SDS011;39039;51.802;5.710;2023-04-29T05:20:12;55.40;;;43.83;;
12660;SDS011;39039;51.802;5.710;2023-04-29T05:22:41;53.67;;;43.20;;
12660;SDS011;39039;51.802;5.710;2023-04-29T05:25:08;48.73;;;40.87;;
12660;SDS011;39039;51.802;5.710;2023-04-29T05:27:35;52.70;;;46.97;;
12660;SDS011;39039;51.802;5.710;2023-04-29T05:30:03;46.63;;;39.43;;
12660;SDS011;39039;51.802;5.710;2023-04-29T05:32:30;49.30;;;37.40;;
12660;SDS011;39039;51.802;5.710;2023-04-29T05:34:57;50.67;;;43.37;;
12660;SDS011;39039;51.802;5.710;2023-04-29T05:37:24;46.47;;;36.60;;
12660;SDS011;39039;51.802;5.710;2023-04-29T05:39:56;45.30;;;39.00;;
12660;SDS011;39039;51.802;5.710;2023-04-29T05:42:23;44.27;;;38.73;;
12660;SDS011;39039;51.802;5.710;2023-04-29T05:44:50;44.37;;;37.93;;
12660;SDS011;39039;51.802;5.710;2023-04-29T05:47:17;43.63;;;37.87;;
12660;SDS011;39039;51.802;5.710;2023-04-29T05:49:44;44.80;;;40.27;;
12660;SDS011;39039;51.802;5.710;2023-04-29T05:52:11;43.80;;;39.47;;
12660;SDS011;39039;51.802;5.710;2023-04-29T05:54:38;41.13;;;36.67;;
12660;SDS011;39039;51.802;5.710;2023-04-29T05:57:06;39.93;;;35.73;;
12660;SDS011;39039;51.802;5.710;2023-04-29T05:59:34;46.07;;;41.53;;
12660;SDS011;39039;51.802;5.710;2023-04-29T06:02:01;48.33;;;43.73;;
12660;SDS011;39039;51.802;5.710;2023-04-29T06:04:28;50.43;;;45.37;;
12660;SDS011;39039;51.802;5.710;2023-04-29T06:06:55;43.80;;;39.47;;
12660;SDS011;39039;51.802;5.710;2023-04-29T06:09:22;47.90;;;43.40;;
12660;SDS011;39039;51.802;5.710;2023-04-29T06:11:49;39.93;;;35.67;;
12660;SDS011;39039;51.802;5.710;2023-04-29T06:14:18;39.83;;;35.87;;
12660;SDS011;39039;51.802;5.710;2023-04-29T06:16:45;37.27;;;33.17;;
12660;SDS011;39039;51.802;5.710;2023-04-29T06:19:13;41.33;;;36.97;;
12660;SDS011;39039;51.802;5.710;2023-04-29T06:21:40;37.33;;;33.53;;
12660;SDS011;39039;51.802;5.710;2023-04-29T06:24:07;36.60;;;32.93;;
12660;SDS011;39039;51.802;5.710;2023-04-29T06:26:34;36.80;;;33.17;;
12660;SDS011;39039;51.802;5.710;2023-04-29T06:29:01;36.13;;;32.50;;
12660;SDS011;39039;51.802;5.710;2023-04-29T06:31:30;38.53;;;34.83;;
12660;SDS011;39039;51.802;5.710;2023-04-29T06:33:57;38.90;;;32.87;;
12660;SDS011;39039;51.802;5.710;2023-04-29T06:36:24;39.47;;;35.63;;
12660;SDS011;39039;51.802;5.710;2023-04-29T06:38:52;43.30;;;39.10;;
12660;SDS011;39039;51.802;5.710;2023-04-29T06:41:19;37.90;;;33.97;;
12660;SDS011;39039;51.802;5.710;2023-04-29T06:43:47;41.23;;;37.63;;
12660;SDS011;39039;51.802;5.710;2023-04-29T06:46:14;34.93;;;31.70;;
12660;SDS011;39039;51.802;5.710;2023-04-29T06:48:43;33.47;;;30.33;;
12660;SDS011;39039;51.802;5.710;2023-04-29T06:51:10;36.47;;;33.03;;
12660;SDS011;39039;51.802;5.710;2023-04-29T06:53:37;33.20;;;30.00;;
12660;SDS011;39039;51.802;5.710;2023-04-29T06:56:04;34.43;;;31.30;;
12660;SDS011;39039;51.802;5.710;2023-04-29T06:58:32;32.77;;;29.63;;
12660;SDS011;39039;51.802;5.710;2023-04-29T07:00:58;33.97;;;30.83;;
12660;SDS011;39039;51.802;5.710;2023-04-29T07:03:27;32.00;;;28.93;;
12660;SDS011;39039;51.802;5.710;2023-04-29T07:05:55;32.27;;;29.10;;
12660;SDS011;39039;51.802;5.710;2023-04-29T07:08:22;31.77;;;28.57;;
12660;SDS011;39039;51.802;5.710;2023-04-29T07:10:53;30.93;;;27.83;;
12660;SDS011;39039;51.802;5.710;2023-04-29T07:13:20;33.87;;;27.37;;
12660;SDS011;39039;51.802;5.710;2023-04-29T07:15:47;31.73;;;26.87;;
12660;SDS011;39039;51.802;5.710;2023-04-29T07:18:14;31.63;;;28.67;;
12660;SDS011;39039;51.802;5.710;2023-04-29T07:20:42;32.17;;;29.13;;
12660;SDS011;39039;51.802;5.710;2023-04-29T07:23:11;32.73;;;29.53;;
12660;SDS011;39039;51.802;5.710;2023-04-29T07:25:38;32.70;;;29.53;;
12660;SDS011;39039;51.802;5.710;2023-04-29T07:28:05;32.67;;;29.40;;
12660;SDS011;39039;51.802;5.710;2023-04-29T07:30:33;31.43;;;28.17;;
12660;SDS011;39039;51.802;5.710;2023-04-29T07:33:00;32.13;;;29.17;;
12660;SDS011;39039;51.802;5.710;2023-04-29T07:35:28;32.20;;;29.20;;
12660;SDS011;39039;51.802;5.710;2023-04-29T07:37:55;31.13;;;28.13;;
12660;SDS011;39039;51.802;5.710;2023-04-29T07:40:23;31.27;;;27.97;;
12660;SDS011;39039;51.802;5.710;2023-04-29T07:42:51;31.87;;;28.67;;
12660;SDS011;39039;51.802;5.710;2023-04-29T07:45:18;30.03;;;27.00;;
12660;SDS011;39039;51.802;5.710;2023-04-29T07:47:45;29.63;;;26.83;;
12660;SDS011;39039;51.802;5.710;2023-04-29T07:50:12;29.17;;;26.47;;
12660;SDS011;39039;51.802;5.710;2023-04-29T07:52:39;28.03;;;25.37;;
12660;SDS011;39039;51.802;5.710;2023-04-29T07:55:06;30.13;;;27.07;;
12660;SDS011;39039;51.802;5.710;2023-04-29T07:57:35;31.17;;;27.97;;
12660;SDS011;39039;51.802;5.710;2023-04-29T08:00:02;29.40;;;26.47;;
12660;SDS011;39039;51.802;5.710;2023-04-29T08:02:29;28.57;;;25.77;;
12660;SDS011;39039;51.802;5.710;2023-04-29T08:04:56;27.67;;;24.80;;
12660;SDS011;39039;51.802;5.710;2023-04-29T08:07:24;29.10;;;25.90;;
12660;SDS011;39039;51.802;5.710;2023-04-29T08:09:51;28.07;;;25.07;;
12660;SDS011;39039;51.802;5.710;2023-04-29T08:12:18;39.97;;;36.67;;
12660;SDS011;39039;51.802;5.710;2023-04-29T08:14:47;33.80;;;30.43;;
12660;SDS011;39039;51.802;5.710;2023-04-29T08:17:13;40.13;;;36.37;;
12660;SDS011;39039;51.802;5.710;2023-04-29T08:19:41;32.97;;;29.87;;
12660;SDS011;39039;51.802;5.710;2023-04-29T08:22:08;28.43;;;25.90;;
12660;SDS011;39039;51.802;5.710;2023-04-29T08:24:36;31.90;;;28.80;;
12660;SDS011;39039;51.802;5.710;2023-04-29T08:27:03;29.73;;;26.77;;
12660;SDS011;39039;51.802;5.710;2023-04-29T08:29:30;31.50;;;28.50;;
12660;SDS011;39039;51.802;5.710;2023-04-29T08:31:59;30.80;;;28.10;;
12660;SDS011;39039;51.802;5.710;2023-04-29T08:34:26;28.47;;;25.67;;
12660;SDS011;39039;51.802;5.710;2023-04-29T08:36:53;28.63;;;25.83;;
12660;SDS011;39039;51.802;5.710;2023-04-29T08:39:21;29.27;;;26.33;;
12660;SDS011;39039;51.802;5.710;2023-04-29T08:41:49;31.10;;;28.50;;
12660;SDS011;39039;51.802;5.710;2023-04-29T08:44:17;31.17;;;28.33;;
12660;SDS011;39039;51.802;5.710;2023-04-29T08:46:45;31.37;;;28.63;;
12660;SDS011;39039;51.802;5.710;2023-04-29T08:49:14;29.53;;;26.93;;
12660;SDS011;39039;51.802;5.710;2023-04-29T08:51:41;29.50;;;27.00;;
12660;SDS011;39039;51.802;5.710;2023-04-29T08:54:08;29.40;;;26.87;;
12660;SDS011;39039;51.802;5.710;2023-04-29T08:56:36;32.17;;;29.47;;
12660;SDS011;39039;51.802;5.710;2023-04-29T08:59:04;28.87;;;26.50;;
12660;SDS011;39039;51.802;5.710;2023-04-29T09:01:33;25.67;;;23.27;;
12660;SDS011;39039;51.802;5.710;2023-04-29T09:04:03;26.67;;;24.37;;
12660;SDS011;39039;51.802;5.710;2023-04-29T09:06:35;26.93;;;24.47;;
12660;SDS011;39039;51.802;5.710;2023-04-29T09:09:02;25.67;;;23.57;;
12660;SDS011;39039;51.802;5.710;2023-04-29T09:11:30;26.67;;;24.17;;
12660;SDS011;39039;51.802;5.710;2023-04-29T09:13:57;25.10;;;22.80;;
12660;SDS011;39039;51.802;5.710;2023-04-29T09:16:25;26.50;;;24.13;;
12660;SDS011;39039;51.802;5.710;2023-04-29T09:18:52;25.80;;;23.67;;
12660;SDS011;39039;51.802;5.710;2023-04-29T09:21:21;27.73;;;25.53;;
12660;SDS011;39039;51.802;5.710;2023-04-29T09:23:51;28.73;;;26.10;;
12660;SDS011;39039;51.802;5.710;2023-04-29T09:26:18;32.10;;;29.67;;
12660;SDS011;39039;51.802;5.710;2023-04-29T09:28:46;32.10;;;29.17;;
12660;SDS011;39039;51.802;5.710;2023-04-29T09:31:13;27.97;;;25.70;;
12660;SDS011;39039;51.802;5.710;2023-04-29T09:33:50;42.27;;;39.07;;
12660;SDS011;39039;51.802;5.710;2023-04-29T09:36:37;39.90;;;36.73;;
12660;SDS011;39039;51.802;5.710;2023-04-29T09:39:06;38.77;;;35.83;;
12660;SDS011;39039;51.802;5.710;2023-04-29T09:41:36;29.43;;;27.10;;
12660;SDS011;39039;51.802;5.710;2023-04-29T09:44:04;23.80;;;21.77;;
12660;SDS011;39039;51.802;5.710;2023-04-29T09:46:33;34.07;;;31.47;;
12660;SDS011;39039;51.802;5.710;2023-04-29T09:49:00;21.87;;;19.97;;
12660;SDS011;39039;51.802;5.710;2023-04-29T09:51:28;22.73;;;20.73;;
12660;SDS011;39039;51.802;5.710;2023-04-29T09:53:57;26.27;;;23.77;;
12660;SDS011;39039;51.802;5.710;2023-04-29T09:56:25;23.90;;;21.57;;
12660;SDS011;39039;51.802;5.710;2023-04-29T09:58:54;22.07;;;20.33;;
12660;SDS011;39039;51.802;5.710;2023-04-29T10:01:22;26.10;;;23.92;;
12660;SDS011;39039;51.802;5.710;2023-04-29T10:03:51;27.30;;;25.20;;
12660;SDS011;39039;51.802;5.710;2023-04-29T10:06:20;30.00;;;27.80;;
12660;SDS011;39039;51.802;5.710;2023-04-29T10:08:47;30.95;;;28.40;;
12660;SDS011;39039;51.802;5.710;2023-04-29T10:11:14;24.92;;;22.70;;
12660;SDS011;39039;51.802;5.710;2023-04-29T10:13:44;25.83;;;23.77;;
12660;SDS011;39039;51.802;5.710;2023-04-29T10:16:14;24.77;;;22.77;;
12660;SDS011;39039;51.802;5.710;2023-04-29T10:18:47;25.25;;;23.20;;
12660;SDS011;39039;51.802;5.710;2023-04-29T10:21:14;33.72;;;31.23;;
12660;SDS011;39039;51.802;5.710;2023-04-29T10:23:43;51.47;;;48.07;;
12660;SDS011;39039;51.802;5.710;2023-04-29T10:26:10;32.27;;;29.77;;
12660;SDS011;39039;51.802;5.710;2023-04-29T10:28:38;27.30;;;25.10;;
12660;SDS011;39039;51.802;5.710;2023-04-29T10:31:07;27.07;;;25.03;;
12660;SDS011;39039;51.802;5.710;2023-04-29T10:33:34;28.30;;;26.25;;
12660;SDS011;39039;51.802;5.710;2023-04-29T10:36:02;30.67;;;28.63;;
12660;SDS011;39039;51.802;5.710;2023-04-29T10:38:31;34.03;;;31.48;;
12660;SDS011;39039;51.802;5.710;2023-04-29T10:41:01;29.65;;;27.65;;
12660;SDS011;39039;51.802;5.710;2023-04-29T10:43:34;26.90;;;24.90;;
12660;SDS011;39039;51.802;5.710;2023-04-29T10:46:18;25.20;;;23.50;;
12660;SDS011;39039;51.802;5.710;2023-04-29T10:48:46;30.67;;;28.58;;
12660;SDS011;39039;51.802;5.710;2023-04-29T10:51:27;25.17;;;23.40;;
12660;SDS011;39039;51.802;5.710;2023-04-29T10:53:57;31.38;;;29.35;;
12660;SDS011;39039;51.802;5.710;2023-04-29T10:56:34;29.38;;;27.58;;
12660;SDS011;39039;51.802;5.710;2023-04-29T10:59:01;34.05;;;31.83;;
12660;SDS011;39039;51.802;5.710;2023-04-29T11:01:40;40.03;;;37.35;;
12660;SDS011;39039;51.802;5.710;2023-04-29T11:04:07;34.90;;;32.78;;
12660;SDS011;39039;51.802;5.710;2023-04-29T11:06:43;36.53;;;34.28;;
12660;SDS011;39039;51.802;5.710;2023-04-29T11:09:11;32.78;;;30.27;;
12660;SDS011;39039;51.802;5.710;2023-04-29T11:11:54;32.67;;;30.58;;
12660;SDS011;39039;51.802;5.710;2023-04-29T11:14:23;29.02;;;27.08;;
12660;SDS011;39039;51.802;5.710;2023-04-29T11:16:52;29.20;;;27.48;;
12660;SDS011;39039;51.802;5.710;2023-04-29T11:19:20;34.00;;;31.80;;
12660;SDS011;39039;51.802;5.710;2023-04-29T11:21:52;27.60;;;25.80;;
12660;SDS011;39039;51.802;5.710;2023-04-29T11:24:29;27.35;;;25.65;;
12660;SDS011;39039;51.802;5.710;2023-04-29T11:26:58;26.15;;;24.00;;
12660;SDS011;39039;51.802;5.710;2023-04-29T11:29:28;27.88;;;26.10;;
12660;SDS011;39039;51.802;5.710;2023-04-29T11:31:58;26.08;;;24.33;;
12660;SDS011;39039;51.802;5.710;2023-04-29T11:34:26;30.48;;;28.48;;
12660;SDS011;39039;51.802;5.710;2023-04-29T11:36:53;27.85;;;26.05;;
12660;SDS011;39039;51.802;5.710;2023-04-29T11:39:20;27.67;;;25.92;;
12660;SDS011;39039;51.802;5.710;2023-04-29T11:41:48;25.17;;;23.60;;
12660;SDS011;39039;51.802;5.710;2023-04-29T11:44:16;21.30;;;19.90;;
12660;SDS011;39039;51.802;5.710;2023-04-29T11:46:47;21.10;;;19.75;;
12660;SDS011;39039;51.802;5.710;2023-04-29T11:49:16;23.90;;;22.20;;
12660;SDS011;39039;51.802;5.710;2023-04-29T11:51:44;26.10;;;24.42;;
12660;SDS011;39039;51.802;5.710;2023-04-29T11:54:11;26.40;;;24.80;;
12660;SDS011;39039;51.802;5.710;2023-04-29T11:56:38;22.73;;;21.30;;
12660;SDS011;39039;51.802;5.710;2023-04-29T11:59:05;24.73;;;23.20;;
12660;SDS011;39039;51.802;5.710;2023-04-29T12:01:32;22.83;;;21.33;;
12660;SDS011;39039;51.802;5.710;2023-04-29T12:04:01;23.45;;;21.90;;
12660;SDS011;39039;51.802;5.710;2023-04-29T12:06:32;23.13;;;21.63;;
12660;SDS011;39039;51.802;5.710;2023-04-29T12:08:59;21.60;;;20.08;;
12660;SDS011;39039;51.802;5.710;2023-04-29T12:11:28;35.85;;;33.65;;
12660;SDS011;39039;51.802;5.710;2023-04-29T12:13:55;24.52;;;22.63;;
12660;SDS011;39039;51.802;5.710;2023-04-29T12:16:25;26.30;;;24.70;;
12660;SDS011;39039;51.802;5.710;2023-04-29T12:18:53;21.48;;;20.08;;
12660;SDS011;39039;51.802;5.710;2023-04-29T12:21:21;20.45;;;18.83;;
12660;SDS011;39039;51.802;5.710;2023-04-29T12:23:50;22.02;;;20.42;;
12660;SDS011;39039;51.802;5.710;2023-04-29T12:26:18;20.55;;;19.15;;
12660;SDS011;39039;51.802;5.710;2023-04-29T12:28:46;26.40;;;24.50;;
12660;SDS011;39039;51.802;5.710;2023-04-29T12:31:14;24.02;;;22.23;;
12660;SDS011;39039;51.802;5.710;2023-04-29T12:33:42;19.67;;;18.33;;
12660;SDS011;39039;51.802;5.710;2023-04-29T12:36:15;20.27;;;18.77;;
12660;SDS011;39039;51.802;5.710;2023-04-29T12:38:43;25.50;;;23.77;;
12660;SDS011;39039;51.802;5.710;2023-04-29T12:41:12;31.55;;;29.45;;
12660;SDS011;39039;51.802;5.710;2023-04-29T12:43:41;25.58;;;23.88;;
12660;SDS011;39039;51.802;5.710;2023-04-29T12:46:09;25.25;;;23.60;;
12660;SDS011;39039;51.802;5.710;2023-04-29T12:48:37;29.02;;;27.20;;
12660;SDS011;39039;51.802;5.710;2023-04-29T12:51:07;30.98;;;29.08;;
12660;SDS011;39039;51.802;5.710;2023-04-29T12:53:34;23.83;;;22.23;;
12660;SDS011;39039;51.802;5.710;2023-04-29T12:56:01;27.50;;;25.80;;
12660;SDS011;39039;51.802;5.710;2023-04-29T12:58:30;22.27;;;20.88;;
12660;SDS011;39039;51.802;5.710;2023-04-29T13:00:58;25.63;;;24.10;;
12660;SDS011;39039;51.802;5.710;2023-04-29T13:03:25;26.35;;;24.65;;
12660;SDS011;39039;51.802;5.710;2023-04-29T13:05:52;26.30;;;24.50;;
12660;SDS011;39039;51.802;5.710;2023-04-29T13:08:19;24.52;;;22.92;;
12660;SDS011;39039;51.802;5.710;2023-04-29T13:10:47;21.33;;;19.92;;
12660;SDS011;39039;51.802;5.710;2023-04-29T13:13:14;29.95;;;27.85;;
12660;SDS011;39039;51.802;5.710;2023-04-29T13:15:42;28.08;;;26.38;;
12660;SDS011;39039;51.802;5.710;2023-04-29T13:18:09;23.05;;;21.40;;
12660;SDS011;39039;51.802;5.710;2023-04-29T13:20:36;19.50;;;18.20;;
12660;SDS011;39039;51.802;5.710;2023-04-29T13:23:03;23.60;;;22.00;;
12660;SDS011;39039;51.802;5.710;2023-04-29T13:25:30;22.73;;;21.33;;
12660;SDS011;39039;51.802;5.710;2023-04-29T13:27:57;23.75;;;22.23;;
12660;SDS011;39039;51.802;5.710;2023-04-29T13:30:24;29.52;;;27.80;;
12660;SDS011;39039;51.802;5.710;2023-04-29T13:32:53;21.30;;;19.95;;
12660;SDS011;39039;51.802;5.710;2023-04-29T13:35:20;19.52;;;18.02;;
12660;SDS011;39039;51.802;5.710;2023-04-29T13:37:47;21.52;;;20.13;;
12660;SDS011;39039;51.802;5.710;2023-04-29T13:40:14;24.25;;;22.80;;
12660;SDS011;39039;51.802;5.710;2023-04-29T13:42:41;22.70;;;21.00;;
12660;SDS011;39039;51.802;5.710;2023-04-29T13:45:08;23.30;;;21.80;;
12660;SDS011;39039;51.802;5.710;2023-04-29T13:47:35;24.08;;;22.58;;
12660;SDS011;39039;51.802;5.710;2023-04-29T13:50:04;37.42;;;35.17;;
12660;SDS011;39039;51.802;5.710;2023-04-29T13:52:31;25.60;;;24.00;;
12660;SDS011;39039;51.802;5.710;2023-04-29T13:54:58;23.05;;;21.65;;
12660;SDS011;39039;51.802;5.710;2023-04-29T13:57:25;19.38;;;18.08;;
12660;SDS011;39039;51.802;5.710;2023-04-29T13:59:52;20.33;;;18.73;;
12660;SDS011;39039;51.802;5.710;2023-04-29T14:02:20;23.20;;;21.67;;
12660;SDS011;39039;51.802;5.710;2023-04-29T14:04:47;49.25;;;46.30;;
12660;SDS011;39039;51.802;5.710;2023-04-29T14:07:15;27.30;;;25.55;;
12660;SDS011;39039;51.802;5.710;2023-04-29T14:09:42;29.52;;;27.85;;
12660;SDS011;39039;51.802;5.710;2023-04-29T14:12:09;24.17;;;22.67;;
12660;SDS011;39039;51.802;5.710;2023-04-29T14:14:36;24.95;;;23.30;;
12660;SDS011;39039;51.802;5.710;2023-04-29T14:17:03;25.67;;;23.67;;
12660;SDS011;39039;51.802;5.710;2023-04-29T14:19:31;20.10;;;18.85;;
12660;SDS011;39039;51.802;5.710;2023-04-29T14:21:58;23.42;;;21.88;;
12660;SDS011;39039;51.802;5.710;2023-04-29T14:24:26;19.67;;;18.13;;
12660;SDS011;39039;51.802;5.710;2023-04-29T14:26:53;21.23;;;19.83;;